Portada
METAR-TAF:

METAR-TAF

Aeroports :

Delta County Airport

Escanaba, Michigan, Estats Units d'Amèrica

latitud: 45-45N, longitud: 087-02W, altitud: 180 m

Observació

L'informe es va fer fa 25 minuts, a les 16:56 UTC
Vent 8 kt del Nord-Est, variant entre Nord/Nord-Est i Est
Temperatura 16°C
Humitat 27%
Pressió 1024 hPa
Visibilitat: 16.1 km
Cel clar

METAR: KESC 201656Z AUTO 04008KT 020V080 10SM CLR 16/M03 A3025 RMK AO2 SLP271 T01561028

Hora: 13:21 (17:21 UTC)


TAF: manca

Observacions i pronòstics meteorològics de més de 4000 aeroports (METAR i TAF).

Les estacions disponibles són els punts grocs i vermells al mapa.

Posi el ratolí al punt desitjat per veure el nom de l'estació.

Feu clic per veure les observacions i els pronòstics meteorològics.

Per canviar el mapa: feu clic els botons verds amb una creu de color negre per apropar; al botó verd amb un guió per allunyar la imatge; o en les fletxes verdes per a mapes adjacents.


METAR-TAF: